Time;durP1;ratioP1;P1;durP2;ratioP2;P2;SDS_P1;SDS_P2;PMS_P1;PMS_P2;Temp;Humidity;BMP_temperature;BMP_pressure;BME280_temperature;BME280_humidity;BME280_pressure;Samples;Min_cycle;Max_cycle;Signal;HPM_P1;HPM_P2
2023/07/20 00:02:21;;;;;;;4.40;2.05;;;;;;;14.98;57.91;100270.28;4987176;28;20121;-43
2023/07/20 00:04:48;;;;;;;4.65;2.05;;;;;;;14.95;57.84;100279.03;4992903;28;20042;-43
2023/07/20 00:07:15;;;;;;;5.82;2.00;;;;;;;14.90;57.97;100281.69;4996976;28;20118;-42
2023/07/20 00:09:42;;;;;;;5.53;1.73;;;;;;;14.86;57.88;100276.59;4987369;28;20069;-43
2023/07/20 00:12:08;;;;;;;3.60;1.75;;;;;;;14.81;58.18;100271.44;4994039;28;20461;-44
2023/07/20 00:14:35;;;;;;;5.95;2.30;;;;;;;14.77;58.17;100267.16;4990119;28;20050;-45
2023/07/20 00:17:02;;;;;;;7.80;2.38;;;;;;;14.74;58.43;100269.78;4992149;28;20054;-44
2023/07/20 00:19:29;;;;;;;4.15;1.80;;;;;;;14.69;58.22;100266.41;4990910;28;20057;-44
2023/07/20 00:21:56;;;;;;;6.50;2.30;;;;;;;14.65;58.41;100273.38;4987924;28;20054;-43
2023/07/20 00:24:23;;;;;;;6.65;2.63;;;;;;;14.61;58.44;100263.91;4986478;28;20058;-44
2023/07/20 00:26:49;;;;;;;6.22;2.15;;;;;;;14.55;58.66;100262.25;4986315;28;20065;-46
2023/07/20 00:29:16;;;;;;;5.32;2.42;;;;;;;14.51;58.68;100263.19;4991196;28;20617;-42
2023/07/20 00:31:43;;;;;;;6.55;2.53;;;;;;;14.45;58.63;100258.94;4997205;28;20053;-40
2023/07/20 00:34:10;;;;;;;8.00;2.72;;;;;;;14.40;59.23;100264.19;4986719;28;20054;-45
2023/07/20 00:36:38;;;;;;;6.68;2.60;;;;;;;14.36;58.65;100262.53;4995025;28;20492;-44
2023/07/20 00:39:05;;;;;;;9.80;2.83;;;;;;;14.33;58.62;100262.59;4987053;28;20139;-48
2023/07/20 00:41:32;;;;;;;6.93;2.35;;;;;;;14.30;59.48;100260.03;4991527;28;20050;-41
2023/07/20 00:43:59;;;;;;;9.07;3.40;;;;;;;14.26;59.31;100253.16;4999622;28;20054;-45
2023/07/20 00:46:26;;;;;;;6.88;2.35;;;;;;;14.25;59.52;100259.22;4995411;28;20049;-44
2023/07/20 00:48:53;;;;;;;7.53;3.22;;;;;;;14.21;59.64;100258.41;4990223;28;20046;-45
2023/07/20 00:51:23;;;;;;;7.07;2.35;;;;;;;14.19;59.74;100257.56;5002816;28;20057;-44
2023/07/20 00:53:50;;;;;;;9.35;3.45;;;;;;;14.16;59.77;100264.56;4983584;28;20046;-44
2023/07/20 00:56:18;;;;;;;6.35;2.42;;;;;;;14.13;60.02;100265.50;4990813;28;20046;-44
2023/07/20 00:58:45;;;;;;;6.55;2.63;;;;;;;14.09;60.14;100269.84;4992381;28;20050;-43
2023/07/20 01:01:12;;;;;;;9.15;2.92;;;;;;;14.07;60.29;100266.44;4993246;28;20058;-44
2023/07/20 01:03:39;;;;;;;5.57;2.83;;;;;;;14.05;59.74;100265.56;4989009;28;20078;-45
2023/07/20 01:06:32;;;;;;;4.22;2.65;;;;;;;14.03;59.70;100269.09;5000316;28;20050;-44
2023/07/20 01:09:14;;;;;;;4.95;2.47;;;;;;;13.95;60.42;100271.81;4979827;28;20067;-41
2023/07/20 01:14:18;;;;;;;4.18;2.38;;;;;;;13.95;60.98;100272.66;5031424;27;20822;-43
2023/07/20 01:16:45;;;;;;;4.80;3.35;;;;;;;13.92;60.40;100266.63;5016559;28;20064;-44
2023/07/20 01:19:14;;;;;;;6.97;3.65;;;;;;;13.89;60.10;100277.97;5019446;28;20050;-43
2023/07/20 01:21:52;;;;;;;6.88;5.10;;;;;;;13.82;60.20;100269.34;5022960;28;20555;-44
2023/07/20 01:32:27;;;;;;;5.22;2.30;;;;;;;13.77;61.21;100257.28;5050561;27;20393;-44
2023/07/20 01:34:55;;;;;;;6.55;2.42;;;;;;;13.75;61.59;100255.56;5041336;28;20045;-43
2023/07/20 01:37:27;;;;;;;4.03;2.22;;;;;;;13.73;61.48;100251.25;5043740;28;20054;-44
2023/07/20 01:39:55;;;;;;;4.88;2.80;;;;;;;13.69;61.98;100249.56;5033528;28;20494;-43
2023/07/20 01:42:24;;;;;;;4.63;2.20;;;;;;;13.67;61.42;100241.78;5044050;28;20048;-46
2023/07/20 01:44:52;;;;;;;6.72;2.38;;;;;;;13.64;61.54;100252.22;5041119;28;20045;-46
2023/07/20 01:47:19;;;;;;;6.45;2.70;;;;;;;13.61;61.40;100242.72;5043513;28;20107;-44
2023/07/20 01:49:46;;;;;;;5.50;2.17;;;;;;;13.58;61.64;100258.34;5047414;28;20480;-42
2023/07/20 01:52:12;;;;;;;3.58;2.03;;;;;;;13.55;62.56;100253.22;5032356;28;20049;-45
2023/07/20 01:54:39;;;;;;;4.35;2.33;;;;;;;13.52;61.50;100250.63;5050181;28;20045;-43
2023/07/20 01:57:06;;;;;;;5.82;2.58;;;;;;;13.48;61.87;100246.31;5044173;28;20049;-46
2023/07/20 01:59:33;;;;;;;7.40;2.78;;;;;;;13.45;62.70;100255.00;5037230;28;20049;-44
2023/07/20 02:01:59;;;;;;;5.25;2.45;;;;;;;13.40;62.43;100243.78;5053036;28;20049;-43
2023/07/20 02:04:26;;;;;;;6.47;2.65;;;;;;;13.37;62.92;100249.91;5044226;28;20214;-43
2023/07/20 02:06:53;;;;;;;8.82;2.88;;;;;;;13.34;62.70;100249.94;5043222;28;20041;-41
2023/07/20 02:09:20;;;;;;;5.15;2.47;;;;;;;13.30;62.90;100243.03;5046753;28;20394;-46
2023/07/20 02:11:47;;;;;;;7.43;2.55;;;;;;;13.28;62.21;100243.94;5042936;28;20045;-44
2023/07/20 02:14:13;;;;;;;5.78;2.42;;;;;;;13.24;62.14;100243.09;5046560;28;20493;-41
2023/07/20 02:16:40;;;;;;;7.95;2.55;;;;;;;13.23;63.00;100246.56;5041773;28;20050;-43
2023/07/20 02:19:07;;;;;;;5.90;2.58;;;;;;;13.20;63.42;100244.00;5034595;28;20049;-43
2023/07/20 02:21:34;;;;;;;5.53;2.15;;;;;;;13.18;63.34;100248.38;5054629;28;20418;-44
2023/07/20 02:24:00;;;;;;;6.05;2.35;;;;;;;13.16;63.10;100244.91;5040287;28;20037;-45
2023/07/20 02:26:28;;;;;;;5.57;3.15;;;;;;;13.14;63.34;100238.88;5043116;28;20061;-43
2023/07/20 02:28:54;;;;;;;9.00;2.92;;;;;;;13.11;62.80;100239.78;5044748;28;20045;-44
2023/07/20 02:31:21;;;;;;;6.45;2.72;;;;;;;13.09;63.74;100245.00;5072278;28;20044;-44
2023/07/20 02:33:48;;;;;;;6.28;2.63;;;;;;;13.06;63.18;100239.81;5086658;28;20048;-45
2023/07/20 02:36:16;;;;;;;5.88;2.35;;;;;;;13.04;63.59;100238.97;5089039;28;20078;-43
2023/07/20 02:38:43;;;;;;;6.55;3.05;;;;;;;13.00;63.44;100234.66;5091066;28;20512;-44
2023/07/20 02:41:10;;;;;;;7.78;2.75;;;;;;;13.00;63.93;100239.03;5102826;28;20046;-46
2023/07/20 02:43:36;;;;;;;5.95;2.70;;;;;;;12.97;63.21;100234.72;5090209;28;20078;-46
2023/07/20 02:46:03;;;;;;;5.90;3.13;;;;;;;12.97;63.46;100245.13;5089166;28;20047;-42
2023/07/20 02:48:30;;;;;;;6.95;4.32;;;;;;;12.98;64.25;100231.25;5088317;28;20649;-44
2023/07/20 02:50:56;;;;;;;6.32;2.72;;;;;;;12.96;63.84;100235.56;5044365;28;20041;-45
2023/07/20 02:53:23;;;;;;;5.68;2.42;;;;;;;12.95;64.58;100244.25;5070359;28;20048;-43
2023/07/20 02:55:50;;;;;;;6.28;2.95;;;;;;;12.94;63.84;100239.94;5067795;28;20045;-47
2023/07/20 02:58:16;;;;;;;8.07;2.95;;;;;;;12.92;64.29;100241.69;5079790;28;20083;-47
2023/07/20 03:00:44;;;;;;;7.35;2.88;;;;;;;12.89;64.13;100234.78;5084158;28;20110;-43
2023/07/20 03:03:11;;;;;;;6.00;2.80;;;;;;;12.88;64.13;100243.47;5092868;28;20040;-44
2023/07/20 03:05:41;;;;;;;7.38;3.88;;;;;;;12.85;63.97;100241.75;5065305;28;20674;-44
2023/07/20 03:08:08;;;;;;;5.97;2.67;;;;;;;12.83;64.03;100242.63;5058065;28;20057;-41
2023/07/20 03:10:40;;;;;;;6.88;2.55;;;;;;;12.81;64.86;100244.38;5066560;28;20086;-46
2023/07/20 03:13:07;;;;;;;5.82;2.55;;;;;;;12.78;64.51;100242.69;5043324;28;20118;-44
2023/07/20 03:15:34;;;;;;;5.32;2.45;;;;;;;12.77;64.07;100246.13;5066645;28;20499;-46
2023/07/20 03:18:02;;;;;;;6.70;3.00;;;;;;;12.73;64.54;100242.72;5085999;28;21215;-47
2023/07/20 03:20:29;;;;;;;7.05;2.80;;;;;;;12.70;63.82;100237.53;5070408;28;20106;-47
2023/07/20 03:22:56;;;;;;;7.65;2.63;;;;;;;12.70;64.14;100241.88;5065346;28;20052;-46
2023/07/20 03:25:23;;;;;;;7.93;2.90;;;;;;;12.68;63.67;100243.63;5066370;28;20101;-45
2023/07/20 03:27:53;;;;;;;6.70;2.95;;;;;;;12.68;64.90;100238.44;5072141;28;20062;-44
2023/07/20 03:30:20;;;;;;;5.88;2.95;;;;;;;12.65;65.26;100238.44;5065618;28;20052;-47
2023/07/20 03:32:47;;;;;;;7.35;3.10;;;;;;;12.64;64.47;100236.72;5057741;28;20068;-45
2023/07/20 03:35:15;;;;;;;6.85;3.40;;;;;;;12.62;65.24;100243.66;5059038;28;20044;-42
2023/07/20 03:37:43;;;;;;;6.97;3.13;;;;;;;12.60;65.56;100241.94;5059475;28;20037;-46
2023/07/20 03:40:10;;;;;;;7.68;3.58;;;;;;;12.60;65.42;100244.56;5056810;28;20051;-43
2023/07/20 03:42:38;;;;;;;8.20;3.20;;;;;;;12.57;64.34;100244.56;5049587;28;20045;-46
2023/07/20 03:45:06;;;;;;;6.50;3.08;;;;;;;12.57;65.74;100244.56;5066621;28;20395;-46
2023/07/20 03:47:33;;;;;;;7.30;3.03;;;;;;;12.53;65.00;100240.28;5084502;28;20557;-43
2023/07/20 03:50:00;;;;;;;13.00;3.28;;;;;;;12.51;64.57;100242.03;5068668;28;20044;-47
2023/07/20 03:52:26;;;;;;;8.05;2.80;;;;;;;12.50;65.05;100237.69;5067278;28;20048;-47
2023/07/20 03:54:53;;;;;;;6.93;2.67;;;;;;;12.49;66.01;100242.94;5061404;28;20084;-46
2023/07/20 03:57:20;;;;;;;9.00;3.17;;;;;;;12.46;65.06;100233.41;5063704;28;20056;-46
2023/07/20 03:59:48;;;;;;;8.75;3.10;;;;;;;12.46;65.94;100238.59;5065391;28;20044;-45
2023/07/20 04:02:14;;;;;;;10.43;3.55;;;;;;;12.43;64.85;100228.25;5069916;28;20068;-43
2023/07/20 04:04:41;;;;;;;7.00;3.10;;;;;;;12.42;65.22;100231.69;5063356;28;20068;-44
2023/07/20 04:07:08;;;;;;;6.20;3.00;;;;;;;12.42;65.32;100232.56;5071357;28;20119;-44
2023/07/20 04:09:34;;;;;;;9.50;4.20;;;;;;;12.41;66.41;100238.66;5062761;28;20059;-46
2023/07/20 04:12:01;;;;;;;10.32;3.10;;;;;;;12.40;66.18;100236.06;5061826;28;20155;-43
2023/07/20 04:14:28;;;;;;;8.35;3.60;;;;;;;12.40;66.11;100243.84;5067592;28;20672;-45
2023/07/20 04:16:55;;;;;;;7.05;3.33;;;;;;;12.37;66.70;100229.16;5062831;28;20045;-46
2023/07/20 04:19:21;;;;;;;8.02;3.45;;;;;;;12.38;65.67;100232.59;5063241;28;20623;-44
2023/07/20 04:21:48;;;;;;;8.75;3.20;;;;;;;12.38;65.89;100232.59;5068053;28;20082;-45
2023/07/20 04:24:14;;;;;;;6.57;3.17;;;;;;;12.38;66.64;100219.59;5064148;28;20045;-43
2023/07/20 04:26:41;;;;;;;8.27;3.22;;;;;;;12.37;65.76;100233.47;5063789;28;20110;-45
2023/07/20 04:29:08;;;;;;;8.27;3.25;;;;;;;12.37;66.75;100233.47;5068488;28;20045;-45
2023/07/20 04:31:35;;;;;;;7.38;3.35;;;;;;;12.36;65.46;100231.75;5060513;28;20044;-47
2023/07/20 04:34:01;;;;;;;9.80;3.70;;;;;;;12.31;66.27;100229.19;5064112;28;20049;-46
2023/07/20 04:36:28;;;;;;;9.13;3.92;;;;;;;12.32;66.10;100226.59;5059933;28;20040;-44
2023/07/20 04:38:55;;;;;;;8.35;3.42;;;;;;;12.32;66.42;100226.59;5061412;28;20041;-46
2023/07/20 04:41:21;;;;;;;9.77;3.75;;;;;;;12.33;66.26;100228.28;5074953;28;20042;-42
2023/07/20 04:43:48;;;;;;;7.35;3.30;;;;;;;12.36;65.87;100221.38;5062503;28;20049;-45
2023/07/20 04:46:17;;;;;;;7.35;3.33;;;;;;;12.37;66.98;100225.69;5056638;28;20045;-45
2023/07/20 04:48:44;;;;;;;6.95;3.83;;;;;;;12.38;66.81;100235.19;5064661;28;20048;-42
2023/07/20 04:51:11;;;;;;;9.85;3.88;;;;;;;12.39;66.78;100232.59;5059833;28;20059;-46
2023/07/20 04:53:38;;;;;;;10.70;3.72;;;;;;;12.41;66.72;100229.97;5061587;28;20041;-46
2023/07/20 04:56:04;;;;;;;8.15;3.50;;;;;;;12.41;67.16;100228.25;5067523;28;20045;-45
2023/07/20 04:58:31;;;;;;;8.90;3.95;;;;;;;12.44;66.74;100229.97;5062204;28;20109;-43
2023/07/20 05:00:58;;;;;;;10.15;3.78;;;;;;;12.47;66.65;100227.34;5056577;28;20045;-44
2023/07/20 05:03:25;;;;;;;7.25;3.42;;;;;;;12.49;66.79;100230.78;5062742;28;20143;-49
2023/07/20 05:05:52;;;;;;;7.85;3.50;;;;;;;12.52;67.49;100230.75;5066235;28;20044;-46
2023/07/20 05:08:18;;;;;;;9.18;3.95;;;;;;;12.55;66.33;100230.75;5061650;28;20056;-44
2023/07/20 05:10:45;;;;;;;12.40;4.18;;;;;;;12.59;66.88;100235.03;5065043;28;20559;-45
2023/07/20 05:13:12;;;;;;;10.93;4.07;;;;;;;12.66;67.55;100240.19;5068833;28;20400;-43
2023/07/20 05:15:39;;;;;;;13.35;4.25;;;;;;;12.73;67.07;100241.84;5093151;28;20044;-46
2023/07/20 05:18:06;;;;;;;9.38;3.95;;;;;;;12.82;68.48;100244.38;5081564;28;20058;-44
2023/07/20 05:20:33;;;;;;;10.02;4.13;;;;;;;12.94;68.37;100245.16;5088267;28;20049;-43
2023/07/20 05:23:01;;;;;;;12.00;4.43;;;;;;;13.05;68.13;100245.91;5086976;28;20423;-44
2023/07/20 05:25:28;;;;;;;10.57;4.32;;;;;;;13.19;67.95;100247.50;5068329;28;20049;-46
2023/07/20 05:27:57;;;;;;;9.32;3.83;;;;;;;13.31;67.85;100255.16;5077927;28;20051;-43
2023/07/20 05:30:24;;;;;;;9.07;4.15;;;;;;;13.40;67.81;100248.16;5087155;28;20058;-46
2023/07/20 05:32:52;;;;;;;10.75;4.35;;;;;;;13.46;67.65;100242.88;5084239;28;20113;-46
2023/07/20 05:35:19;;;;;;;8.70;3.78;;;;;;;13.53;67.76;100244.56;5090574;28;20140;-45
2023/07/20 05:37:46;;;;;;;8.80;3.90;;;;;;;13.58;67.11;100240.13;5086043;28;20047;-47
2023/07/20 05:40:18;;;;;;;10.32;5.75;;;;;;;13.65;66.95;100242.69;5085833;28;20625;-44
2023/07/20 05:42:47;;;;;;;8.55;3.60;;;;;;;13.67;67.10;100233.09;5085577;28;20052;-45
2023/07/20 05:45:15;;;;;;;10.30;4.13;;;;;;;13.73;67.12;100240.84;5089688;28;20414;-47
2023/07/20 05:47:41;;;;;;;9.35;3.88;;;;;;;13.77;67.53;100242.50;5081253;28;20040;-45
2023/07/20 05:50:09;;;;;;;9.23;3.97;;;;;;;13.84;67.58;100249.38;5086558;28;20157;-44
2023/07/20 05:52:37;;;;;;;7.63;3.17;;;;;;;13.90;67.01;100247.56;5085279;28;20044;-46
2023/07/20 05:55:05;;;;;;;10.77;3.92;;;;;;;13.94;67.17;100249.25;5091299;28;20835;-43
2023/07/20 05:57:31;;;;;;;8.65;3.38;;;;;;;13.97;67.08;100244.88;5086700;28;20403;-45
2023/07/20 05:59:58;;;;;;;11.98;4.13;;;;;;;14.01;67.70;100235.25;5087279;28;20052;-49
2023/07/20 06:02:25;;;;;;;8.20;4.13;;;;;;;14.06;67.01;100241.28;5084509;28;20098;-44
2023/07/20 06:04:51;;;;;;;9.73;3.65;;;;;;;14.11;67.76;100235.97;5097207;28;20047;-47
2023/07/20 06:07:18;;;;;;;9.95;4.15;;;;;;;14.16;67.20;100233.31;5094053;28;20047;-46
2023/07/20 06:09:45;;;;;;;8.48;3.83;;;;;;;14.22;67.08;100234.09;5086103;28;20058;-44
2023/07/20 06:12:11;;;;;;;9.82;4.38;;;;;;;14.27;67.64;100237.50;5086443;28;20043;-47
2023/07/20 06:14:38;;;;;;;11.15;4.55;;;;;;;14.33;67.61;100246.97;5088432;28;20048;-43
2023/07/20 06:17:05;;;;;;;8.23;4.10;;;;;;;14.37;67.22;100238.22;5088281;28;20100;-48
2023/07/20 06:19:32;;;;;;;8.80;3.88;;;;;;;14.42;67.45;100243.34;5090151;28;20048;-42
2023/07/20 06:21:58;;;;;;;10.98;4.80;;;;;;;14.49;67.40;100246.72;5097757;28;20043;-46
2023/07/20 06:24:25;;;;;;;9.13;4.07;;;;;;;14.54;67.02;100242.28;5086328;28;20055;-45
2023/07/20 06:26:52;;;;;;;8.25;3.63;;;;;;;14.59;67.52;100237.84;5073613;28;20044;-44
2023/07/20 06:29:19;;;;;;;9.38;4.03;;;;;;;14.63;67.26;100238.69;5092527;28;20078;-47
2023/07/20 06:31:45;;;;;;;10.95;3.70;;;;;;;14.70;67.06;100234.22;5088890;28;20509;-47
2023/07/20 06:34:12;;;;;;;7.80;3.95;;;;;;;14.75;67.55;100240.22;5089702;28;20822;-45
2023/07/20 06:36:39;;;;;;;8.77;4.05;;;;;;;14.80;66.91;100241.03;5103821;28;20075;-47
2023/07/20 06:39:05;;;;;;;9.48;3.78;;;;;;;14.84;66.90;100242.72;5090158;28;20047;-42
2023/07/20 06:41:35;;;;;;;7.60;3.65;;;;;;;14.90;66.99;100246.97;5089599;28;20047;-44
2023/07/20 06:44:05;;;;;;;9.40;3.90;;;;;;;14.97;66.96;100247.69;5071638;28;20063;-44
2023/07/20 06:46:31;;;;;;;8.13;3.80;;;;;;;15.03;66.81;100245.84;5089732;28;20044;-44
2023/07/20 06:48:58;;;;;;;9.60;4.07;;;;;;;15.10;66.99;100243.97;5090618;28;20070;-46
2023/07/20 06:51:27;;;;;;;10.20;4.50;;;;;;;15.21;66.65;100245.53;5097663;28;20052;-44
2023/07/20 06:53:55;;;;;;;11.30;4.40;;;;;;;15.36;67.20;100244.34;5090532;28;20047;-46
2023/07/20 06:56:22;;;;;;;10.23;4.03;;;;;;;15.62;67.19;100243.84;5070459;28;20036;-43
2023/07/20 06:58:51;;;;;;;12.07;4.32;;;;;;;15.84;67.61;100246.00;5089287;28;20048;-47
2023/07/20 07:01:20;;;;;;;8.40;4.65;;;;;;;16.07;67.30;100247.28;5088967;28;20048;-47
2023/07/20 07:03:48;;;;;;;7.95;3.53;;;;;;;16.29;67.43;100242.44;5091045;28;20135;-42
2023/07/20 07:06:18;;;;;;;8.65;4.28;;;;;;;16.50;66.89;100244.56;5089880;28;20977;-44
2023/07/20 07:08:45;;;;;;;10.82;4.45;;;;;;;16.68;66.71;100241.50;5090941;28;20052;-44
2023/07/20 07:11:12;;;;;;;9.32;4.15;;;;;;;16.83;66.46;100239.41;5090993;28;20047;-45
2023/07/20 07:13:39;;;;;;;9.55;4.38;;;;;;;16.96;66.53;100242.56;5090127;28;20495;-42
2023/07/20 07:16:05;;;;;;;9.88;4.20;;;;;;;17.14;66.17;100240.34;5082165;28;20044;-45
2023/07/20 07:18:35;;;;;;;7.65;3.97;;;;;;;17.29;66.07;100244.34;5085894;28;20056;-47
2023/07/20 07:21:02;;;;;;;8.20;4.00;;;;;;;17.40;65.47;100246.66;5089752;28;20052;-44
2023/07/20 07:23:29;;;;;;;9.02;3.90;;;;;;;17.52;65.10;100251.53;5089109;28;20129;-44
2023/07/20 07:25:56;;;;;;;7.13;4.07;;;;;;;17.66;65.68;100240.66;5087445;28;20093;-48
2023/07/20 07:28:23;;;;;;;7.22;3.95;;;;;;;17.78;65.39;100236.81;5093352;28;20043;-46
2023/07/20 07:30:50;;;;;;;8.40;4.00;;;;;;;17.86;64.61;100241.81;5087358;28;20055;-48
2023/07/20 07:33:16;;;;;;;8.00;4.15;;;;;;;17.95;64.79;100244.19;5088448;28;20056;-45
2023/07/20 07:35:43;;;;;;;9.45;4.15;;;;;;;18.03;64.00;100238.69;5088291;28;20040;-45
2023/07/20 07:38:10;;;;;;;9.98;4.50;;;;;;;18.10;64.58;100237.63;5085709;28;20539;-43
2023/07/20 07:40:58;;;;;;;8.77;4.65;;;;;;;18.20;64.39;100238.19;5086072;28;20059;-45
2023/07/20 07:43:25;;;;;;;9.05;4.28;;;;;;;18.28;63.37;100235.34;5067984;28;20050;-45
2023/07/20 07:45:54;;;;;;;9.95;4.07;;;;;;;18.33;64.17;100232.56;5090815;28;20043;-43
2023/07/20 07:48:22;;;;;;;7.22;4.07;;;;;;;18.37;63.69;100228.91;5088677;28;20056;-43
2023/07/20 07:50:49;;;;;;;9.50;3.47;;;;;;;18.44;63.17;100235.69;5069706;28;20044;-44
2023/07/20 07:53:16;;;;;;;8.13;4.45;;;;;;;18.57;63.65;100230.03;5090215;28;20047;-45
2023/07/20 07:55:43;;;;;;;8.82;4.00;;;;;;;18.73;63.41;100231.25;5093687;28;20469;-44
2023/07/20 07:58:10;;;;;;;8.95;3.50;;;;;;;18.87;62.78;100230.78;5090126;28;20044;-47
2023/07/20 08:00:37;;;;;;;7.57;4.07;;;;;;;18.93;62.57;100232.31;5086231;28;20043;-43
2023/07/20 08:03:03;;;;;;;7.03;4.10;;;;;;;18.94;62.34;100236.66;5093054;28;20406;-44
2023/07/20 08:05:30;;;;;;;6.78;3.53;;;;;;;18.95;62.11;100235.75;5086685;28;20126;-48
2023/07/20 08:07:57;;;;;;;6.60;3.70;;;;;;;18.94;62.41;100239.28;5087678;28;20039;-48
2023/07/20 08:10:23;;;;;;;8.05;2.78;;;;;;;18.95;61.66;100238.38;5087519;28;20140;-47
2023/07/20 08:12:51;;;;;;;6.53;2.90;;;;;;;19.00;61.59;100238.22;5087374;28;20046;-45
2023/07/20 08:15:17;;;;;;;4.32;2.38;;;;;;;19.03;61.68;100243.38;5088208;28;20074;-43
2023/07/20 08:17:44;;;;;;;7.05;2.78;;;;;;;19.06;61.14;100240.66;5084527;28;20047;-47
2023/07/20 08:20:13;;;;;;;7.43;2.80;;;;;;;19.13;61.36;100241.31;5094225;28;20071;-46
2023/07/20 08:22:40;;;;;;;6.82;3.30;;;;;;;19.20;61.40;100240.19;5069586;28;20051;-43
2023/07/20 08:25:07;;;;;;;6.20;2.60;;;;;;;19.30;60.83;100242.47;5085354;28;20044;-48
2023/07/20 08:27:35;;;;;;;6.97;2.97;;;;;;;19.42;60.63;100239.38;5092269;28;20101;-46
2023/07/20 08:30:02;;;;;;;7.72;2.63;;;;;;;19.56;60.57;100240.66;5087607;28;20452;-46
2023/07/20 08:32:29;;;;;;;6.22;2.33;;;;;;;19.65;60.19;100235.03;5068128;28;20044;-47
2023/07/20 08:34:56;;;;;;;6.80;1.98;;;;;;;19.73;59.77;100235.59;5085940;28;20040;-46
2023/07/20 08:37:23;;;;;;;4.88;2.13;;;;;;;19.85;60.05;100230.78;5090695;28;20063;-46
2023/07/20 08:39:50;;;;;;;5.13;2.00;;;;;;;19.95;58.99;100229.53;5091313;28;20044;-46
2023/07/20 08:42:17;;;;;;;5.07;1.90;;;;;;;20.04;59.17;100230.97;5090369;28;20134;-45
2023/07/20 08:44:45;;;;;;;2.97;1.42;;;;;;;20.10;58.45;100235.13;5087238;28;20079;-46
2023/07/20 08:47:13;;;;;;;4.07;2.00;;;;;;;20.14;58.19;100228.84;5086891;28;20052;-49
2023/07/20 08:49:41;;;;;;;5.75;1.55;;;;;;;20.22;58.33;100232.00;5090307;28;20492;-44
2023/07/20 08:52:07;;;;;;;5.38;1.90;;;;;;;20.32;57.93;100229.00;5088009;28;20428;-44
2023/07/20 08:54:35;;;;;;;4.55;1.50;;;;;;;20.41;57.65;100226.84;5092331;28;20054;-45
2023/07/20 08:57:04;;;;;;;3.38;1.50;;;;;;;20.48;56.90;100232.72;5092661;28;20139;-46
2023/07/20 08:59:32;;;;;;;5.20;1.98;;;;;;;20.51;57.35;100222.09;5085340;28;20444;-44
2023/07/20 09:02:00;;;;;;;4.75;1.75;;;;;;;20.59;56.94;100231.41;5090284;28;20059;-45
2023/07/20 09:04:27;;;;;;;4.35;1.65;;;;;;;20.68;57.21;100231.03;5086049;28;20075;-47
2023/07/20 09:06:54;;;;;;;4.60;1.42;;;;;;;20.78;56.55;100232.34;5086591;28;20044;-47
2023/07/20 09:09:21;;;;;;;5.30;1.55;;;;;;;20.83;55.75;100234.78;5087056;28;20094;-46
2023/07/20 09:11:49;;;;;;;2.55;1.23;;;;;;;20.95;55.63;100233.44;5082999;28;20047;-44
2023/07/20 09:14:16;;;;;;;2.45;1.10;;;;;;;21.11;55.29;100224.88;5084818;28;20059;-46
2023/07/20 09:16:52;;;;;;;4.05;1.38;;;;;;;21.27;55.01;100227.66;5087600;28;20129;-44
2023/07/20 09:19:19;;;;;;;3.38;1.55;;;;;;;21.36;54.46;100226.41;5069148;28;20052;-44
2023/07/20 09:21:48;;;;;;;2.85;1.20;;;;;;;21.48;53.76;100225.84;5088290;28;20090;-47
2023/07/20 09:24:18;;;;;;;3.17;1.38;;;;;;;21.64;53.42;100230.41;5070183;28;20056;-44
2023/07/20 09:26:49;;;;;;;3.35;1.30;;;;;;;21.73;52.54;100230.00;5087327;28;20040;-45
2023/07/20 09:29:19;;;;;;;3.13;1.33;;;;;;;21.85;52.95;100227.72;5088938;28;20040;-45
2023/07/20 09:32:04;;;;;;;6.97;1.85;;;;;;;21.93;52.30;100230.84;5089644;28;20047;-51
2023/07/20 09:34:32;;;;;;;2.30;1.27;;;;;;;22.02;52.30;100230.41;5084282;28;20105;-47
2023/07/20 09:37:03;;;;;;;2.78;1.33;;;;;;;22.12;52.23;100224.72;5084699;28;20079;-47
2023/07/20 09:39:31;;;;;;;;;;;;;;;22.27;52.13;100223.09;5085577;28;20097;-44
2023/07/20 09:42:02;;;;;;;3.17;1.50;;;;;;;22.45;52.37;100218.69;5085705;28;19927;-55
2023/07/20 09:44:32;;;;;;;2.88;1.80;;;;;;;22.69;51.82;100221.03;5084497;28;20129;-47
2023/07/20 09:47:03;;;;;;;2.75;1.30;;;;;;;22.83;50.84;100223.84;5087695;28;20113;-47
2023/07/20 09:49:32;;;;;;;2.22;1.20;;;;;;;22.89;50.36;100224.47;5072256;28;20081;-45
2023/07/20 09:52:20;;;;;;;3.63;1.52;;;;;;;22.92;50.63;100219.88;5075609;28;20378;-46
2023/07/20 09:54:52;;;;;;;2.10;1.08;;;;;;;22.95;49.74;100214.44;5088805;28;20047;-48
2023/07/20 09:57:21;;;;;;;3.95;1.40;;;;;;;22.96;49.85;100216.13;5091257;28;20494;-45
2023/07/20 09:59:48;;;;;;;2.60;1.60;;;;;;;22.95;49.31;100213.56;5090940;28;20451;-46
2023/07/20 10:02:32;;;;;;;4.47;1.95;;;;;;;22.94;48.11;100203.94;5102057;28;20040;-44
2023/07/20 10:05:04;;;;;;;2.78;1.60;;;;;;;23.04;49.38;100207.81;5090988;28;20403;-52
2023/07/20 10:07:35;;;;;;;3.40;1.40;;;;;;;23.08;47.93;100204.09;5082920;28;20151;-48
2023/07/20 10:10:07;;;;;;;2.45;1.52;;;;;;;23.27;48.67;100207.53;5076718;28;20048;-49
2023/07/20 10:12:35;;;;;;;3.05;1.85;;;;;;;23.48;48.43;100200.25;5096656;28;21124;-48
2023/07/20 10:15:29;;;;;;;2.58;1.52;;;;;;;23.71;47.77;100206.06;5100204;28;20048;-45
2023/07/20 10:20:35;;;;;;;4.90;1.48;;;;;;;23.84;47.76;100204.44;5075835;27;20390;-48
2023/07/20 10:23:02;;;;;;;3.22;1.80;;;;;;;23.81;46.98;100201.94;5071519;28;20046;-47
2023/07/20 10:25:29;;;;;;;2.92;2.60;;;;;;;23.73;47.11;100198.88;5064023;28;20385;-47
2023/07/20 10:27:56;;;;;;;4.30;1.63;;;;;;;23.70;46.46;100204.34;5060225;28;20052;-51
2023/07/20 10:30:24;;;;;;;3.35;2.28;;;;;;;23.60;46.31;100196.94;5068926;28;20479;-48
2023/07/20 10:32:52;;;;;;;5.15;1.77;;;;;;;23.65;46.41;100203.75;5065078;28;20496;-46
2023/07/20 10:35:18;;;;;;;4.15;2.97;;;;;;;23.72;47.10;100198.06;5062925;28;20390;-49
2023/07/20 10:38:02;;;;;;;2.67;1.67;;;;;;;23.84;47.10;100195.66;5060880;28;20049;-46
2023/07/20 10:40:32;;;;;;;2.22;1.05;;;;;;;23.97;46.32;100196.66;5059720;28;20059;-48
2023/07/20 10:45:48;;;;;;;3.78;1.63;;;;;;;24.22;46.52;100194.44;5071411;27;20902;-46
2023/07/20 10:48:19;;;;;;;4.78;2.67;;;;;;;24.29;45.49;100190.50;5017888;28;20080;-51
2023/07/20 10:51:19;;;;;;;3.53;2.00;;;;;;;24.24;45.50;100192.53;5004432;28;20100;-45
2023/07/20 10:53:48;;;;;;;3.60;2.50;;;;;;;24.22;45.53;100189.13;5021367;28;20506;-44
2023/07/20 10:56:20;;;;;;;2.53;2.00;;;;;;;24.06;44.64;100187.34;5003104;28;20049;-47
2023/07/20 10:58:47;;;;;;;2.03;1.35;;;;;;;24.02;44.87;100188.47;5006753;28;20650;-47
2023/07/20 11:01:16;;;;;;;4.53;2.20;;;;;;;24.07;45.65;100183.75;5014076;28;20494;-46
2023/07/20 11:03:50;;;;;;;5.75;2.55;;;;;;;24.03;45.44;100174.28;5011292;28;20582;-47
2023/07/20 11:14:23;;;;;;;2.83;2.20;;;;;;;23.39;45.71;100174.31;5086261;27;20414;-48
2023/07/20 11:16:51;;;;;;;4.40;2.38;;;;;;;23.35;46.08;100181.56;5076794;28;20051;-44
2023/07/20 11:19:23;;;;;;;3.28;2.30;;;;;;;23.30;46.27;100175.66;5082673;28;20504;-45
2023/07/20 11:21:56;;;;;;;2.65;1.27;;;;;;;23.29;46.07;100174.78;5076045;28;20614;-46
2023/07/20 11:24:29;;;;;;;3.67;3.15;;;;;;;23.31;45.91;100172.94;5078977;28;20045;-46
2023/07/20 11:26:56;;;;;;;4.50;2.85;;;;;;;23.33;46.33;100165.75;5079757;28;20045;-50
2023/07/20 11:29:25;;;;;;;2.75;2.50;;;;;;;23.36;45.28;100164.75;5081252;27;20048;-52
2023/07/20 11:31:59;;;;;;;3.88;3.30;;;;;;;23.38;46.07;100162.03;5077182;28;20052;-44
2023/07/20 11:34:27;;;;;;;5.30;3.45;;;;;;;23.41;46.55;100167.16;5074815;28;20079;-49
2023/07/20 11:36:54;;;;;;;2.50;1.40;;;;;;;23.43;45.93;100165.28;5070041;28;20496;-45
2023/07/20 11:39:25;;;;;;;3.22;1.65;;;;;;;23.53;45.80;100166.47;5076394;28;20530;-46
2023/07/20 11:41:55;;;;;;;4.10;1.38;;;;;;;23.61;45.50;100169.53;5073783;28;20448;-45
2023/07/20 11:44:26;;;;;;;3.22;2.05;;;;;;;23.67;45.98;100156.94;5079197;28;20055;-48
2023/07/20 11:49:54;;;;;;;2.63;1.10;;;;;;;23.81;45.69;100154.34;5025207;27;20397;-46
2023/07/20 11:52:23;;;;;;;2.10;1.17;;;;;;;23.84;44.49;100148.88;4988101;28;20077;-47
2023/07/20 11:54:50;;;;;;;3.20;1.63;;;;;;;23.96;45.36;100151.78;4991115;28;20054;-46
2023/07/20 11:57:18;;;;;;;2.50;1.25;;;;;;;24.10;44.82;100146.53;4986727;28;20065;-49